Time;durP1;ratioP1;P1;durP2;ratioP2;P2;SDS_P1;SDS_P2;PMS_P1;PMS_P2;Temp;Humidity;BMP_temperature;BMP_pressure;BME280_temperature;BME280_humidity;BME280_pressure;Samples;Min_cycle;Max_cycle;Signal;HPM_P1;HPM_P2
2020/12/09 00:00:56;;;;;;;15.40;5.53;;;18.40;47.20;;;;;;5085307;28;20041;-47
2020/12/09 00:03:22;;;;;;;7.57;4.40;;;18.40;47.10;;;;;;5086763;28;20051;-44
2020/12/09 00:05:49;;;;;;;5.72;4.72;;;18.40;47.00;;;;;;5087128;28;20044;-43
2020/12/09 00:08:16;;;;;;;6.13;4.40;;;18.40;46.80;;;;;;5087234;28;20801;-43
2020/12/09 00:10:44;;;;;;;5.68;4.43;;;18.40;46.90;;;;;;5085376;28;20125;-45
2020/12/09 00:13:11;;;;;;;8.25;4.78;;;18.40;46.70;;;;;;5085291;28;20408;-43
2020/12/09 00:15:37;;;;;;;6.70;4.20;;;18.40;46.60;;;;;;5085582;28;20424;-43
2020/12/09 00:18:04;;;;;;;7.05;4.00;;;18.30;46.40;;;;;;5085137;28;20054;-43
2020/12/09 00:20:30;;;;;;;4.65;3.28;;;18.30;46.20;;;;;;5085560;28;20044;-43
2020/12/09 00:22:57;;;;;;;6.07;3.70;;;18.30;46.10;;;;;;5085373;28;20076;-47
2020/12/09 00:25:23;;;;;;;7.05;3.38;;;18.30;46.00;;;;;;5084634;28;20048;-44
2020/12/09 00:27:51;;;;;;;5.10;3.80;;;18.30;45.90;;;;;;5085020;28;20515;-43
2020/12/09 00:30:17;;;;;;;4.72;4.28;;;18.30;45.90;;;;;;5085653;28;20076;-43
2020/12/09 00:32:44;;;;;;;4.63;3.75;;;18.20;45.80;;;;;;5085241;28;20597;-45
2020/12/09 00:35:10;;;;;;;6.25;3.67;;;18.20;45.80;;;;;;5087034;28;20407;-43
2020/12/09 00:37:37;;;;;;;4.93;3.60;;;18.20;45.90;;;;;;5084686;28;20139;-46
2020/12/09 00:40:04;;;;;;;5.15;3.83;;;18.20;46.50;;;;;;5084769;28;20062;-43
2020/12/09 00:42:33;;;;;;;7.95;3.60;;;18.20;45.90;;;;;;5084000;28;20511;-44
2020/12/09 00:45:00;;;;;;;3.78;3.15;;;18.20;45.90;;;;;;5077796;28;20047;-44
2020/12/09 00:47:27;;;;;;;5.85;3.20;;;18.20;45.90;;;;;;5072735;28;20220;-43
2020/12/09 00:52:48;;;;;;;6.88;3.80;;;18.10;45.60;;;;;;5080700;28;20048;-46
2020/12/09 00:55:17;;;;;;;7.22;4.55;;;18.10;45.40;;;;;;5064916;28;20325;-51
2020/12/09 00:57:48;;;;;;;7.82;4.50;;;18.10;45.40;;;;;;5066469;28;20059;-43
2020/12/09 01:00:17;;;;;;;4.03;3.60;;;18.10;45.50;;;;;;5056725;28;20037;-47
2020/12/09 01:02:47;;;;;;;8.30;4.60;;;18.00;45.30;;;;;;5051539;28;20053;-44
2020/12/09 01:05:16;;;;;;;9.52;5.93;;;18.00;45.20;;;;;;5055874;28;20052;-43
2020/12/09 01:07:43;;;;;;;8.13;4.90;;;18.00;45.10;;;;;;5073040;28;20048;-46
2020/12/09 01:10:10;;;;;;;5.40;3.90;;;18.00;45.10;;;;;;5073122;28;20464;-43
2020/12/09 01:12:39;;;;;;;7.78;5.28;;;18.00;45.10;;;;;;5072868;28;20036;-46
2020/12/09 01:15:07;;;;;;;7.40;5.25;;;17.90;45.00;;;;;;5069316;28;20056;-50
2020/12/09 01:17:34;;;;;;;8.35;4.85;;;17.90;44.80;;;;;;5070380;28;20052;-47
2020/12/09 01:20:01;;;;;;;11.88;4.88;;;17.90;44.80;;;;;;5084957;28;20040;-43
2020/12/09 01:22:28;;;;;;;12.73;4.72;;;17.80;44.70;;;;;;5076313;28;20055;-43
2020/12/09 01:24:54;;;;;;;9.57;4.72;;;17.80;44.70;;;;;;5073220;28;20498;-43
2020/12/09 01:27:24;;;;;;;5.28;3.95;;;17.80;44.60;;;;;;5071451;28;20059;-43
2020/12/09 01:29:50;;;;;;;8.27;4.38;;;17.80;44.50;;;;;;5069944;28;20404;-43
2020/12/09 01:32:17;;;;;;;15.38;5.05;;;17.80;44.60;;;;;;5076398;28;20044;-46
2020/12/09 01:34:44;;;;;;;4.70;3.88;;;17.80;44.70;;;;;;5076725;28;20123;-43
2020/12/09 01:37:12;;;;;;;5.68;4.10;;;17.80;44.80;;;;;;5078337;28;20634;-47
2020/12/09 01:39:39;;;;;;;6.32;4.05;;;17.70;44.80;;;;;;5079037;28;20082;-43
2020/12/09 01:42:06;;;;;;;6.60;4.47;;;17.70;44.80;;;;;;5072027;28;20040;-47
2020/12/09 01:44:32;;;;;;;9.05;4.70;;;17.70;44.70;;;;;;5072689;28;20059;-43
2020/12/09 01:47:02;;;;;;;7.82;4.43;;;17.70;45.40;;;;;;5086318;28;20048;-45
2020/12/09 01:49:29;;;;;;;10.50;4.45;;;17.70;44.80;;;;;;5081949;28;20072;-45
2020/12/09 01:51:58;;;;;;;5.32;4.38;;;17.70;44.80;;;;;;5076358;28;20051;-43
2020/12/09 01:54:25;;;;;;;6.13;3.80;;;17.70;44.80;;;;;;5072062;28;20055;-46
2020/12/09 01:57:03;;;;;;;5.35;4.32;;;17.60;44.80;;;;;;5087625;28;20094;-51
2020/12/09 01:59:29;;;;;;;5.32;3.30;;;17.60;44.90;;;;;;5069629;28;20583;-57
2020/12/09 02:01:56;;;;;;;5.05;3.95;;;17.60;44.80;;;;;;5064028;28;20047;-46
2020/12/09 02:04:23;;;;;;;7.53;4.30;;;17.60;44.90;;;;;;5075671;28;20040;-43
2020/12/09 02:06:51;;;;;;;4.63;3.92;;;17.60;44.80;;;;;;5076069;28;20048;-43
2020/12/09 02:09:19;;;;;;;5.65;3.67;;;17.60;44.80;;;;;;5073948;28;20051;-44
2020/12/09 02:11:47;;;;;;;5.93;3.40;;;17.50;44.80;;;;;;5072749;28;20131;-43
2020/12/09 02:14:14;;;;;;;4.55;2.80;;;17.50;44.80;;;;;;5075853;28;20523;-45
2020/12/09 02:16:40;;;;;;;5.28;2.80;;;17.50;44.80;;;;;;5082343;28;20518;-43
2020/12/09 02:19:07;;;;;;;4.82;3.17;;;17.50;44.80;;;;;;5082622;28;20587;-43
2020/12/09 02:21:35;;;;;;;4.55;2.97;;;17.50;44.90;;;;;;5086724;28;20048;-44
2020/12/09 02:24:01;;;;;;;6.28;2.55;;;17.50;44.90;;;;;;5071958;28;20502;-46
2020/12/09 02:26:29;;;;;;;4.22;2.88;;;17.50;45.00;;;;;;5074869;28;20041;-45
2020/12/09 02:28:56;;;;;;;2.90;2.58;;;17.50;44.80;;;;;;5075542;28;20137;-44
2020/12/09 02:31:23;;;;;;;4.50;3.58;;;17.40;44.60;;;;;;5075327;28;20579;-43
2020/12/09 02:33:49;;;;;;;6.05;2.88;;;17.40;44.60;;;;;;5075505;28;20044;-44
2020/12/09 02:36:16;;;;;;;2.67;2.38;;;17.40;44.60;;;;;;5072510;28;20499;-45
2020/12/09 02:38:43;;;;;;;4.30;2.75;;;17.40;45.30;;;;;;5087399;28;20139;-48
2020/12/09 02:41:10;;;;;;;4.65;2.42;;;17.40;44.80;;;;;;5074430;28;20045;-45
2020/12/09 02:43:36;;;;;;;3.13;2.25;;;17.40;44.80;;;;;;5075025;28;20040;-45
2020/12/09 02:46:03;;;;;;;2.63;1.83;;;17.40;44.90;;;;;;5075282;28;20443;-44
2020/12/09 02:48:30;;;;;;;3.08;2.20;;;17.40;44.90;;;;;;5074499;28;20059;-43
2020/12/09 02:50:56;;;;;;;3.17;1.88;;;17.40;44.90;;;;;;5082929;28;20711;-43
2020/12/09 02:53:23;;;;;;;2.25;1.88;;;17.40;45.00;;;;;;5074796;28;20527;-43
2020/12/09 02:55:50;;;;;;;2.47;2.13;;;17.40;44.90;;;;;;5074946;28;20032;-43
2020/12/09 02:58:17;;;;;;;2.17;1.50;;;17.40;44.90;;;;;;5074019;28;20111;-44
2020/12/09 03:00:44;;;;;;;2.03;1.15;;;17.30;44.80;;;;;;5074558;28;20048;-43
2020/12/09 03:03:10;;;;;;;1.83;1.50;;;17.30;44.80;;;;;;5055743;28;20498;-43
2020/12/09 03:05:36;;;;;;;2.75;1.50;;;17.30;44.90;;;;;;5086216;28;20044;-43
2020/12/09 03:08:04;;;;;;;4.05;1.55;;;17.40;45.00;;;;;;5089055;28;20598;-43
2020/12/09 03:10:31;;;;;;;2.25;1.60;;;17.30;44.80;;;;;;5077617;28;20063;-43
2020/12/09 03:12:58;;;;;;;3.60;2.05;;;17.30;44.70;;;;;;5059528;28;20076;-46
2020/12/09 03:15:25;;;;;;;2.70;1.65;;;17.30;44.70;;;;;;5072269;28;20045;-43
2020/12/09 03:17:51;;;;;;;1.77;1.52;;;17.30;44.70;;;;;;5086613;28;20129;-43
2020/12/09 03:20:18;;;;;;;2.72;2.47;;;17.30;44.60;;;;;;5084770;28;20079;-46
2020/12/09 03:22:44;;;;;;;5.22;1.98;;;17.30;44.60;;;;;;5075794;28;20044;-43
2020/12/09 03:25:11;;;;;;;1.58;1.35;;;17.30;44.70;;;;;;5074393;28;20040;-43
2020/12/09 03:27:37;;;;;;;4.03;1.55;;;17.30;44.70;;;;;;5074183;28;20048;-44
2020/12/09 03:30:05;;;;;;;2.35;1.52;;;17.30;44.60;;;;;;5070624;28;20048;-43
2020/12/09 03:32:31;;;;;;;2.10;1.55;;;17.30;44.60;;;;;;5072939;28;20076;-44
2020/12/09 03:34:58;;;;;;;2.90;2.05;;;17.20;44.50;;;;;;5069251;28;20083;-43
2020/12/09 03:37:24;;;;;;;3.80;1.73;;;17.30;44.50;;;;;;5068531;28;20051;-43
2020/12/09 03:39:51;;;;;;;1.83;1.30;;;17.20;44.40;;;;;;5074026;28;20126;-42
2020/12/09 03:42:17;;;;;;;2.70;1.85;;;17.20;44.50;;;;;;5072230;28;20127;-43
2020/12/09 03:44:44;;;;;;;2.40;1.80;;;17.20;44.50;;;;;;5071833;28;20048;-43
2020/12/09 03:47:11;;;;;;;2.45;2.22;;;17.20;44.60;;;;;;5073905;28;20040;-43
2020/12/09 03:49:38;;;;;;;6.75;1.42;;;17.20;44.50;;;;;;5082092;28;20131;-43
2020/12/09 03:52:04;;;;;;;2.65;2.10;;;17.20;44.60;;;;;;5076868;28;20448;-43
2020/12/09 03:54:31;;;;;;;5.35;3.28;;;17.20;45.20;;;;;;5077862;28;20046;-43
2020/12/09 03:56:58;;;;;;;3.00;1.80;;;17.20;44.60;;;;;;5078385;28;20126;-49
2020/12/09 03:59:25;;;;;;;3.25;2.88;;;17.20;44.60;;;;;;5073973;28;20119;-43
2020/12/09 04:01:51;;;;;;;4.07;2.22;;;17.20;44.50;;;;;;5082069;28;20078;-47
2020/12/09 04:04:18;;;;;;;3.42;2.40;;;17.20;44.50;;;;;;5077231;28;20135;-43
2020/12/09 04:06:45;;;;;;;4.28;2.20;;;17.20;44.50;;;;;;5083254;28;20131;-46
2020/12/09 04:09:12;;;;;;;3.85;2.65;;;17.20;44.40;;;;;;5071341;28;20044;-44
2020/12/09 04:11:38;;;;;;;3.40;3.13;;;17.10;44.40;;;;;;5053683;28;20135;-46
2020/12/09 04:14:05;;;;;;;3.30;3.03;;;17.10;44.30;;;;;;5053384;28;20524;-43
2020/12/09 04:16:32;;;;;;;3.75;3.42;;;17.10;44.40;;;;;;5073876;28;20044;-47
2020/12/09 04:18:58;;;;;;;4.28;3.38;;;17.20;44.40;;;;;;5073783;28;20514;-43
2020/12/09 04:21:25;;;;;;;3.55;3.15;;;17.10;44.30;;;;;;5071558;28;20087;-43
2020/12/09 04:23:52;;;;;;;3.85;2.50;;;17.20;44.40;;;;;;5069423;28;20073;-49
2020/12/09 04:26:18;;;;;;;4.15;3.45;;;17.10;44.30;;;;;;5056449;28;20122;-46
2020/12/09 04:28:45;;;;;;;5.30;3.30;;;17.10;44.20;;;;;;5073370;28;20048;-47
2020/12/09 04:31:11;;;;;;;6.07;3.38;;;17.10;44.30;;;;;;5073508;28;20076;-45
2020/12/09 04:33:47;;;;;;;3.92;2.90;;;17.10;44.30;;;;;;5073410;28;20132;-47
2020/12/09 04:36:14;;;;;;;4.43;3.42;;;17.10;44.30;;;;;;5071017;28;20135;-46
2020/12/09 04:38:41;;;;;;;4.80;3.47;;;17.10;44.30;;;;;;5053249;28;20048;-44
2020/12/09 04:41:08;;;;;;;3.80;2.80;;;17.10;44.20;;;;;;5073314;28;20040;-45
2020/12/09 04:43:34;;;;;;;9.80;3.17;;;17.10;44.20;;;;;;5077425;28;20044;-45
2020/12/09 04:46:01;;;;;;;8.40;3.65;;;17.00;44.10;;;;;;5083277;28;20040;-46
2020/12/09 04:48:29;;;;;;;3.55;3.15;;;17.00;44.10;;;;;;5078434;28;20062;-44
2020/12/09 04:51:37;;;;;;;4.55;3.03;;;17.00;44.10;;;;;;5071648;28;20514;-46
2020/12/09 04:54:13;;;;;;;4.30;2.75;;;17.10;44.10;;;;;;5069572;28;20044;-46
2020/12/09 04:56:51;;;;;;;7.50;3.33;;;17.00;44.10;;;;;;5070771;28;20068;-45
2020/12/09 04:59:22;;;;;;;3.55;2.47;;;17.00;44.10;;;;;;5073155;28;20059;-50
2020/12/09 05:02:01;;;;;;;3.47;2.72;;;17.00;44.10;;;;;;5073356;28;20075;-44
2020/12/09 05:04:31;;;;;;;6.13;2.17;;;17.00;44.20;;;;;;5078831;28;21030;-47
2020/12/09 05:07:00;;;;;;;4.30;2.83;;;17.00;44.30;;;;;;5084615;28;20049;-47
2020/12/09 05:09:28;;;;;;;4.03;3.10;;;17.00;44.20;;;;;;5082668;28;20135;-43
2020/12/09 05:12:03;;;;;;;3.83;2.10;;;17.00;44.20;;;;;;5089200;28;20048;-42
2020/12/09 05:14:32;;;;;;;4.10;2.60;;;16.90;44.20;;;;;;5088778;28;20548;-46
2020/12/09 05:16:59;;;;;;;3.95;2.58;;;16.90;44.80;;;;;;5086008;28;20538;-46
2020/12/09 05:19:26;;;;;;;5.25;2.63;;;16.90;44.30;;;;;;5076440;28;20041;-47
2020/12/09 05:21:54;;;;;;;5.95;2.33;;;16.90;44.30;;;;;;5076856;28;20044;-49
2020/12/09 05:24:21;;;;;;;4.45;3.35;;;16.90;44.30;;;;;;5074948;28;20047;-44
2020/12/09 05:26:48;;;;;;;13.48;3.78;;;16.90;44.30;;;;;;5074138;28;20047;-47
2020/12/09 05:29:16;;;;;;;4.45;3.10;;;16.90;44.30;;;;;;5076622;28;20053;-44
2020/12/09 05:31:44;;;;;;;4.25;2.63;;;16.90;44.30;;;;;;5085299;28;20519;-49
2020/12/09 05:34:28;;;;;;;6.32;3.45;;;16.90;44.30;;;;;;5087709;28;20414;-47
2020/12/09 05:36:57;;;;;;;5.38;3.53;;;16.90;44.90;;;;;;5087441;28;20040;-44
2020/12/09 05:39:24;;;;;;;4.75;3.53;;;16.90;44.30;;;;;;5090376;28;20078;-46
2020/12/09 05:41:52;;;;;;;5.97;3.03;;;16.80;44.30;;;;;;5087732;28;20115;-43
2020/12/09 05:44:20;;;;;;;5.05;3.70;;;16.90;44.30;;;;;;5092426;28;20097;-46
2020/12/09 05:46:58;;;;;;;4.30;2.90;;;16.80;44.30;;;;;;5089919;28;20507;-44
2020/12/09 05:49:27;;;;;;;6.03;3.20;;;16.90;44.30;;;;;;5080557;28;20052;-44
2020/12/09 05:52:08;;;;;;;6.55;4.38;;;16.90;44.20;;;;;;5081894;28;20051;-43
2020/12/09 05:54:35;;;;;;;5.95;3.20;;;16.90;44.20;;;;;;5086827;28;20044;-47
2020/12/09 05:57:07;;;;;;;3.30;3.00;;;16.80;44.20;;;;;;5087886;28;20051;-54
2020/12/09 05:59:35;;;;;;;5.05;3.28;;;16.90;44.30;;;;;;5087715;28;20055;-50
2020/12/09 06:02:09;;;;;;;5.60;3.03;;;16.80;44.30;;;;;;5088883;28;20040;-48
2020/12/09 06:04:49;;;;;;;3.83;3.13;;;16.90;44.40;;;;;;5085208;28;20101;-45
2020/12/09 06:07:16;;;;;;;5.00;3.75;;;16.90;44.50;;;;;;5084327;28;20047;-46
2020/12/09 06:10:09;;;;;;;3.85;3.50;;;16.80;44.50;;;;;;5087293;28;20055;-47
2020/12/09 06:12:54;;;;;;;5.75;3.13;;;16.80;44.40;;;;;;5086533;28;20040;-45
2020/12/09 06:15:22;;;;;;;4.80;3.75;;;16.80;44.50;;;;;;5087966;28;20036;-44
2020/12/09 06:18:01;;;;;;;7.15;4.40;;;16.80;44.50;;;;;;5085687;28;20044;-44
2020/12/09 06:20:29;;;;;;;5.20;3.10;;;16.80;44.50;;;;;;5088633;28;20136;-43
2020/12/09 06:22:57;;;;;;;3.08;2.78;;;16.80;44.50;;;;;;5087031;28;20164;-45
2020/12/09 06:25:23;;;;;;;4.93;3.88;;;16.80;44.50;;;;;;5086908;28;20457;-46
2020/12/09 06:27:51;;;;;;;6.35;4.03;;;16.80;44.60;;;;;;5086317;28;20040;-44
2020/12/09 06:30:27;;;;;;;6.00;4.50;;;16.80;44.50;;;;;;5088919;28;20044;-43
2020/12/09 06:32:54;;;;;;;6.22;3.78;;;16.80;44.60;;;;;;5086451;28;20205;-44
2020/12/09 06:35:22;;;;;;;3.95;3.25;;;16.70;44.50;;;;;;5089007;28;20564;-47
2020/12/09 06:38:19;;;;;;;7.05;3.55;;;16.70;44.50;;;;;;5086732;28;20067;-43
2020/12/09 06:41:11;;;;;;;3.85;2.72;;;16.80;44.60;;;;;;4997763;28;20070;-43
2020/12/09 06:43:39;;;;;;;4.57;3.33;;;16.80;44.70;;;;;;5000189;28;20050;-43
2020/12/09 06:46:05;;;;;;;4.28;3.30;;;16.70;44.60;;;;;;4992923;28;20057;-43
2020/12/09 06:48:39;;;;;;;4.40;2.78;;;16.70;44.70;;;;;;4995347;28;20507;-45
2020/12/09 06:51:45;;;;;;;5.10;4.30;;;16.70;44.70;;;;;;4990767;28;20059;-44
2020/12/09 06:54:13;;;;;;;4.25;3.40;;;16.80;44.70;;;;;;4985603;28;20528;-43
2020/12/09 06:56:40;;;;;;;4.25;3.05;;;16.70;44.60;;;;;;4990359;28;20426;-42
2020/12/09 06:59:27;;;;;;;5.35;3.80;;;16.70;44.60;;;;;;4993584;28;20490;-43
2020/12/09 07:02:02;;;;;;;6.82;3.35;;;16.70;44.50;;;;;;4992929;28;20046;-43
2020/12/09 07:05:07;;;;;;;5.35;3.05;;;16.70;44.60;;;;;;4992767;28;20046;-42
2020/12/09 07:07:36;;;;;;;5.57;2.90;;;16.70;44.60;;;;;;4992806;28;20053;-43
2020/12/09 07:10:10;;;;;;;4.78;2.88;;;16.70;44.70;;;;;;4991428;28;20046;-43
2020/12/09 07:12:37;;;;;;;6.38;3.13;;;16.70;44.70;;;;;;4992837;28;20510;-43
2020/12/09 07:15:06;;;;;;;3.92;2.45;;;16.70;44.70;;;;;;5035962;28;20044;-45
2020/12/09 07:17:33;;;;;;;4.38;3.13;;;16.70;44.60;;;;;;5072333;28;20043;-53
2020/12/09 07:19:59;;;;;;;3.92;3.03;;;16.70;44.50;;;;;;5069102;28;20085;-43
2020/12/09 07:22:27;;;;;;;5.28;3.35;;;16.70;44.50;;;;;;5085085;28;20133;-47
2020/12/09 07:24:54;;;;;;;3.53;3.22;;;16.70;44.50;;;;;;5083373;28;20040;-43
2020/12/09 07:27:24;;;;;;;4.45;3.83;;;16.70;44.50;;;;;;5087211;28;20125;-43
2020/12/09 07:29:53;;;;;;;3.85;3.50;;;16.70;44.60;;;;;;5085748;28;20036;-43
2020/12/09 07:32:22;;;;;;;3.90;2.35;;;16.70;44.60;;;;;;5087317;28;20040;-43
2020/12/09 07:34:54;;;;;;;6.32;3.03;;;16.80;44.60;;;;;;5086144;28;20048;-43
2020/12/09 07:37:22;;;;;;;3.97;2.83;;;16.70;44.60;;;;;;5079411;28;20051;-49
2020/12/09 07:39:51;;;;;;;10.90;3.50;;;16.70;44.60;;;;;;5073451;28;20045;-46
2020/12/09 07:42:18;;;;;;;3.70;2.50;;;16.70;44.50;;;;;;5086851;28;20044;-43
2020/12/09 07:44:45;;;;;;;4.47;2.97;;;16.70;44.50;;;;;;5086637;28;20052;-44
2020/12/09 07:47:12;;;;;;;7.78;3.45;;;16.70;44.50;;;;;;5085416;28;20073;-43
2020/12/09 07:49:50;;;;;;;5.68;3.10;;;16.70;44.50;;;;;;5085190;28;20044;-43
2020/12/09 07:52:26;;;;;;;5.70;3.22;;;16.80;44.50;;;;;;5082538;28;20044;-48
2020/12/09 07:54:57;;;;;;;6.70;3.63;;;16.80;44.60;;;;;;5084837;28;20051;-43
2020/12/09 07:57:29;;;;;;;7.28;4.53;;;16.80;44.60;;;;;;5083561;28;20140;-43
2020/12/09 07:59:56;;;;;;;8.38;4.93;;;16.70;44.60;;;;;;5085739;28;20052;-50
2020/12/09 08:02:24;;;;;;;6.70;4.97;;;16.70;44.60;;;;;;5073349;28;20055;-50
2020/12/09 08:05:12;;;;;;;12.02;5.35;;;16.70;44.60;;;;;;5073608;28;20538;-43
2020/12/09 08:07:50;;;;;;;9.73;6.05;;;16.70;44.60;;;;;;5078960;28;20048;-44
2020/12/09 08:10:22;;;;;;;9.30;6.13;;;16.80;44.70;;;;;;5064368;28;20037;-43
2020/12/09 08:12:49;;;;;;;10.45;5.07;;;16.80;44.70;;;;;;5073738;28;20139;-44
2020/12/09 08:15:17;;;;;;;12.10;5.60;;;16.70;44.70;;;;;;5071113;28;20094;-44
2020/12/09 08:17:47;;;;;;;10.07;5.45;;;16.70;44.70;;;;;;5071066;28;20075;-47
2020/12/09 08:20:17;;;;;;;9.98;5.50;;;16.70;44.70;;;;;;5073402;28;20074;-43
2020/12/09 08:22:56;;;;;;;8.02;5.18;;;16.70;44.60;;;;;;5073254;28;20072;-44
2020/12/09 08:25:23;;;;;;;11.27;6.15;;;16.80;44.60;;;;;;5073748;28;20049;-47
2020/12/09 08:27:50;;;;;;;8.82;6.65;;;16.70;44.50;;;;;;5073054;28;20052;-48
2020/12/09 08:30:19;;;;;;;9.77;5.18;;;16.70;44.60;;;;;;5080634;28;20043;-47
2020/12/09 08:32:58;;;;;;;12.60;6.07;;;16.80;44.50;;;;;;5084335;28;20048;-44
2020/12/09 08:35:26;;;;;;;9.50;5.72;;;16.80;44.50;;;;;;5088748;28;20385;-43
2020/12/09 08:37:52;;;;;;;12.43;6.65;;;16.80;44.60;;;;;;5085592;28;20512;-47
2020/12/09 08:40:19;;;;;;;11.95;6.40;;;16.80;44.60;;;;;;5086842;28;20537;-44
2020/12/09 08:42:54;;;;;;;9.15;6.03;;;16.80;44.60;;;;;;5088483;28;20052;-45
2020/12/09 08:45:21;;;;;;;9.32;5.38;;;16.80;44.70;;;;;;5089578;28;20063;-45
2020/12/09 08:47:48;;;;;;;22.00;7.75;;;16.80;44.60;;;;;;5077393;28;20051;-53
2020/12/09 08:50:15;;;;;;;10.38;5.30;;;16.80;44.60;;;;;;5089189;28;20136;-43
2020/12/09 08:52:44;;;;;;;11.48;6.10;;;16.80;44.60;;;;;;5088900;28;20044;-43
2020/12/09 08:55:10;;;;;;;12.60;5.25;;;16.80;44.60;;;;;;5089037;28;20127;-44
2020/12/09 08:57:37;;;;;;;11.20;6.45;;;16.80;44.50;;;;;;5088806;28;20127;-43
2020/12/09 09:00:06;;;;;;;11.20;5.45;;;16.80;44.60;;;;;;5089064;28;20546;-50
2020/12/09 09:02:33;;;;;;;8.40;5.07;;;16.80;44.70;;;;;;5092359;28;20074;-49
2020/12/09 09:05:00;;;;;;;9.85;5.13;;;16.80;44.60;;;;;;5090060;28;20056;-45
2020/12/09 09:07:26;;;;;;;12.80;6.53;;;16.80;44.50;;;;;;5089944;28;20127;-44
2020/12/09 09:09:54;;;;;;;7.93;5.75;;;16.80;44.50;;;;;;5088909;28;20050;-45
2020/12/09 09:12:21;;;;;;;12.02;6.10;;;16.80;44.40;;;;;;5088819;28;20342;-43
2020/12/09 09:14:47;;;;;;;10.43;5.82;;;16.80;44.60;;;;;;5090723;28;20044;-43
2020/12/09 09:17:14;;;;;;;11.80;6.75;;;16.90;44.80;;;;;;5090558;28;20101;-47
2020/12/09 09:19:41;;;;;;;14.02;6.07;;;16.90;44.80;;;;;;5087294;28;20044;-47
2020/12/09 09:22:11;;;;;;;13.73;5.93;;;16.90;44.80;;;;;;5086779;28;20139;-48
2020/12/09 09:24:37;;;;;;;16.63;6.25;;;16.90;44.70;;;;;;5089235;28;20126;-48
2020/12/09 09:27:09;;;;;;;12.07;5.60;;;16.90;44.70;;;;;;5087206;28;20094;-43
2020/12/09 09:29:36;;;;;;;9.93;5.55;;;16.90;44.60;;;;;;5088317;28;20093;-43
2020/12/09 09:32:02;;;;;;;7.95;5.40;;;16.90;44.60;;;;;;5087845;28;20115;-43
2020/12/09 09:34:29;;;;;;;8.25;5.65;;;16.90;44.50;;;;;;5086913;28;20048;-44
2020/12/09 09:36:56;;;;;;;11.43;5.90;;;16.90;44.50;;;;;;5086532;28;20055;-45
2020/12/09 09:39:22;;;;;;;9.38;5.82;;;16.90;44.50;;;;;;5089364;28;20040;-45
2020/12/09 09:41:49;;;;;;;9.65;4.70;;;16.90;44.50;;;;;;5086444;28;20040;-44
2020/12/09 09:44:16;;;;;;;10.23;4.72;;;16.90;44.60;;;;;;5089336;28;20090;-43
2020/12/09 09:46:45;;;;;;;7.50;4.43;;;16.90;44.60;;;;;;5086589;28;20062;-46
2020/12/09 09:49:12;;;;;;;8.10;4.63;;;16.90;44.70;;;;;;5086190;28;20526;-45
2020/12/09 09:51:38;;;;;;;8.55;5.07;;;16.90;44.70;;;;;;5085705;28;20512;-45
2020/12/09 09:54:05;;;;;;;11.93;5.03;;;16.90;44.70;;;;;;5088528;28;20511;-43
2020/12/09 09:56:32;;;;;;;9.13;4.25;;;16.90;44.70;;;;;;5070310;28;20040;-43
2020/12/09 09:58:59;;;;;;;6.47;5.00;;;16.90;44.80;;;;;;5088159;28;20521;-44
2020/12/09 10:01:26;;;;;;;5.72;3.90;;;16.90;44.70;;;;;;5087255;28;20524;-50
2020/12/09 10:03:53;;;;;;;5.57;4.35;;;16.90;44.90;;;;;;5087352;28;20036;-42
2020/12/09 10:06:19;;;;;;;10.05;4.90;;;16.90;44.90;;;;;;5089022;28;20475;-42
2020/12/09 10:08:46;;;;;;;8.13;4.65;;;16.90;44.90;;;;;;5087720;28;20070;-43
2020/12/09 10:11:13;;;;;;;9.38;4.43;;;16.90;44.90;;;;;;5088621;28;20574;-43
2020/12/09 10:13:40;;;;;;;11.48;4.25;;;17.00;45.00;;;;;;5087097;28;20040;-44
2020/12/09 10:16:06;;;;;;;5.45;3.38;;;17.00;45.00;;;;;;5087081;28;20040;-44
2020/12/09 10:18:33;;;;;;;4.25;3.30;;;16.90;44.90;;;;;;5089589;28;20724;-43
2020/12/09 10:21:00;;;;;;;7.40;3.75;;;17.00;45.00;;;;;;5087650;28;20049;-44
2020/12/09 10:23:27;;;;;;;7.65;3.42;;;17.00;44.90;;;;;;5088712;28;20047;-47
2020/12/09 10:25:53;;;;;;;6.53;3.55;;;17.00;45.40;;;;;;5085185;28;20039;-47
2020/12/09 10:28:20;;;;;;;6.47;2.88;;;17.00;44.80;;;;;;5086139;28;20044;-44
2020/12/09 10:30:47;;;;;;;6.25;2.97;;;17.00;44.80;;;;;;5086095;28;20076;-47
2020/12/09 10:33:14;;;;;;;3.85;2.65;;;17.00;44.60;;;;;;5085808;28;20036;-43
2020/12/09 10:35:45;;;;;;;5.75;3.17;;;17.00;44.60;;;;;;5087381;28;20044;-46
2020/12/09 10:38:12;;;;;;;5.78;3.03;;;17.00;44.50;;;;;;5087895;28;20564;-45
2020/12/09 10:40:38;;;;;;;4.05;3.40;;;17.00;44.30;;;;;;5086122;28;20040;-44
2020/12/09 10:43:05;;;;;;;4.05;3.38;;;17.00;44.30;;;;;;5086881;28;20060;-43
2020/12/09 10:45:32;;;;;;;15.05;3.70;;;17.00;44.30;;;;;;5079938;28;20135;-44
2020/12/09 10:47:59;;;;;;;6.75;3.97;;;17.10;44.20;;;;;;5081721;28;20122;-44
2020/12/09 10:50:26;;;;;;;5.03;3.40;;;17.00;44.10;;;;;;5090380;28;20044;-44
2020/12/09 10:52:54;;;;;;;6.90;3.05;;;17.00;44.00;;;;;;5084984;28;20055;-44
2020/12/09 10:55:23;;;;;;;15.07;3.67;;;17.10;44.70;;;;;;5069364;28;20105;-42
2020/12/09 10:57:50;;;;;;;5.28;3.13;;;17.00;44.00;;;;;;5084045;28;20094;-45
2020/12/09 11:00:17;;;;;;;7.38;3.17;;;17.10;44.10;;;;;;5072365;28;20048;-45
2020/12/09 11:02:44;;;;;;;7.90;3.15;;;17.00;44.10;;;;;;5080700;28;20048;-45
2020/12/09 11:05:11;;;;;;;6.60;2.75;;;17.00;44.30;;;;;;5085153;28;20131;-53
2020/12/09 11:07:37;;;;;;;7.63;4.00;;;17.00;44.30;;;;;;5080974;28;20151;-45
2020/12/09 11:10:09;;;;;;;8.88;4.75;;;17.00;44.50;;;;;;5083019;28;20135;-45
2020/12/09 11:12:36;;;;;;;12.27;3.53;;;17.00;44.70;;;;;;5086036;28;20044;-44
2020/12/09 11:15:03;;;;;;;14.52;3.20;;;17.00;44.80;;;;;;5085732;28;20036;-44
2020/12/09 11:17:30;;;;;;;13.68;4.45;;;17.00;44.80;;;;;;5090147;28;20121;-47
2020/12/09 11:19:56;;;;;;;12.30;3.80;;;17.00;44.80;;;;;;5074411;28;20051;-44
2020/12/09 11:22:23;;;;;;;8.57;3.65;;;17.10;44.90;;;;;;5074795;28;20045;-49
2020/12/09 11:24:50;;;;;;;27.10;4.75;;;17.10;44.90;;;;;;5074734;28;20423;-45
2020/12/09 11:27:18;;;;;;;6.85;4.18;;;17.10;44.80;;;;;;5072012;28;20041;-45
2020/12/09 11:29:44;;;;;;;7.15;3.47;;;17.10;44.70;;;;;;5072195;28;20048;-45
2020/12/09 11:32:11;;;;;;;13.23;4.72;;;17.10;44.60;;;;;;5074541;28;20088;-47
2020/12/09 11:34:38;;;;;;;10.57;4.05;;;17.10;44.50;;;;;;5074687;28;20056;-52
2020/12/09 11:37:04;;;;;;;9.93;3.85;;;17.10;44.40;;;;;;5075297;28;20521;-47
2020/12/09 11:39:31;;;;;;;4.95;2.72;;;17.10;44.40;;;;;;5086225;28;20039;-45
2020/12/09 11:41:59;;;;;;;9.80;3.35;;;17.10;44.40;;;;;;5070994;28;20075;-46
2020/12/09 11:44:26;;;;;;;5.07;3.50;;;17.10;44.30;;;;;;5074230;28;20500;-49
2020/12/09 11:46:53;;;;;;;5.53;2.97;;;17.10;44.30;;;;;;5074332;28;20200;-52
2020/12/09 11:49:19;;;;;;;8.18;3.53;;;17.10;44.20;;;;;;5077279;28;20048;-50
2020/12/09 11:51:49;;;;;;;9.25;3.42;;;17.10;44.10;;;;;;5084309;28;20139;-44
2020/12/09 11:54:17;;;;;;;5.30;2.53;;;17.10;44.10;;;;;;5071703;28;20043;-44
2020/12/09 11:56:44;;;;;;;10.07;4.03;;;17.10;44.00;;;;;;5085598;28;20388;-43
2020/12/09 11:59:11;;;;;;;8.20;3.60;;;17.10;43.90;;;;;;5056422;28;20060;-44
2020/12/09 12:01:38;;;;;;;7.03;3.28;;;17.10;43.90;;;;;;5079683;28;20040;-44
2020/12/09 12:04:04;;;;;;;7.80;4.18;;;17.10;43.80;;;;;;5081731;28;20055;-44
2020/12/09 12:06:32;;;;;;;9.77;3.83;;;17.10;43.80;;;;;;5073180;28;20051;-45
2020/12/09 12:08:58;;;;;;;8.98;4.50;;;17.10;43.80;;;;;;5070161;28;20698;-43
2020/12/09 12:11:27;;;;;;;5.90;3.95;;;17.10;43.70;;;;;;5074135;28;20045;-44
2020/12/09 12:13:54;;;;;;;7.47;3.58;;;17.10;43.70;;;;;;5073882;28;20047;-43
2020/12/09 12:16:23;;;;;;;5.03;4.00;;;17.10;43.60;;;;;;5078280;28;20048;-45
2020/12/09 12:18:51;;;;;;;5.78;3.30;;;17.10;43.60;;;;;;5076962;28;20066;-43
2020/12/09 12:21:19;;;;;;;7.45;3.78;;;17.10;43.50;;;;;;5071125;28;20041;-44
2020/12/09 12:23:46;;;;;;;9.60;3.72;;;17.10;43.50;;;;;;5071771;28;20048;-44
2020/12/09 12:26:15;;;;;;;8.68;3.75;;;17.10;43.50;;;;;;5073785;28;20459;-44
2020/12/09 12:28:42;;;;;;;4.50;3.10;;;17.10;43.50;;;;;;5074075;28;20048;-45
2020/12/09 12:31:10;;;;;;;4.15;2.95;;;17.10;43.50;;;;;;5073887;28;20119;-44
2020/12/09 12:33:38;;;;;;;3.97;3.35;;;17.10;43.40;;;;;;5074320;28;20040;-45
2020/12/09 12:36:06;;;;;;;4.78;3.47;;;17.10;43.40;;;;;;5074918;28;20040;-45
2020/12/09 12:38:33;;;;;;;9.88;4.18;;;17.10;43.30;;;;;;5083386;28;20097;-43
2020/12/09 12:40:59;;;;;;;5.65;4.53;;;17.00;43.30;;;;;;5085422;28;20044;-46
2020/12/09 12:43:26;;;;;;;8.20;5.28;;;17.00;43.30;;;;;;5081851;28;20422;-51
2020/12/09 12:45:53;;;;;;;8.27;4.10;;;17.00;43.40;;;;;;5079781;28;20048;-44
2020/12/09 12:48:19;;;;;;;10.30;4.30;;;17.00;43.60;;;;;;5086588;28;20736;-44
2020/12/09 12:50:46;;;;;;;8.02;4.30;;;17.00;43.80;;;;;;5086485;28;20059;-44
2020/12/09 12:53:13;;;;;;;8.10;4.65;;;17.00;43.80;;;;;;5086797;28;20071;-44
2020/12/09 12:55:40;;;;;;;13.48;4.47;;;17.00;44.00;;;;;;5085464;28;20132;-45